Terminal Aerodrome Forecast
Issued by NWS Pocatello, ID

Home | Current Version | Previous Version | Text Only | Print | Product List | Glossary On
Versions: 1 2 3 4 5 6 7 8 9 10 11 12
389
FTUS45 KPIH 181120
TAFBYI
TAF
KBYI 181120Z 1812/1912 VRB05KT P6SM SCT200
     FM190300 18007KT P6SM SKC=

USA.gov is the U.S. government's official web portal to all federal, state and local government web resources and services.